Latest Weather Observations for Robe Airport

IDS60801

Issued at 9:41 am CDT Saturday 10 December 2022 (issued every 10 minutes, with the page automatically refreshed every 10 minutes)

About weather observations | Map of weather stations | Latest weather observations for SA | Other Formats
Station Details ID: 026105 Name: ROBE AIRFIELD Lat: -37.18 Lon: 139.81 Height: 3.0 m
Data from the previous 72 hours. | See also: Recent months at Robe Airport
Date/Time
CDT
Temp
°C
App
Temp
°C
Dew
Point
°C
Rel
Hum
%
Delta-T
°C
Wind Press
QNH
hPa
Press
MSL
hPa
Rain since
9am
mm
Dir  Spd
km/h
Gust
km/h
Spd
kts
Gust
kts
10/09:30am 19.1 14.7 7.2 46 6.0 NE 20 28 11 15 1013.1 1013.1 0.0
10/09:00am 18.1 13.3 7.5 50 5.4 NE 22 30 12 16 1013.6 1013.6 0.0
10/08:30am 16.5 12.3 8.2 58 4.2 NE 20 30 11 16 1013.8 1013.8 0.0
10/08:00am 14.4 10.0 7.5 63 3.4 NE 20 30 11 16 1013.8 1013.8 0.0
10/07:30am 12.6 8.5 7.7 72 2.4 NE 19 28 10 15 1013.7 1013.7 0.0
10/07:00am 11.1 7.7 7.6 79 1.7 NE 15 20 8 11 1013.7 1013.7 0.0
10/06:30am 9.9 6.8 7.3 84 1.2 ENE 13 17 7 9 1013.6 1013.6 0.0
10/06:00am 9.1 6.0 7.2 88 0.9 ENE 13 19 7 10 1013.6 1013.6 0.0
10/05:30am 9.3 6.7 7.6 89 0.8 ENE 11 20 6 11 1013.5 1013.5 0.0
10/05:00am 9.1 6.4 7.5 90 0.8 ENE 11 17 6 9 1013.2 1013.2 0.0
10/04:30am 9.4 7.7 7.5 88 0.9 ENE 6 9 3 5 1013.2 1013.2 0.0
10/04:00am 9.6 7.7 7.5 87 1.0 E 7 11 4 6 1013.1 1013.1 0.0
10/03:30am 9.9 7.3 7.8 87 1.0 E 11 15 6 8 1013.4 1013.4 0.0
10/03:00am 9.8 7.6 7.7 87 1.0 E 9 13 5 7 1013.5 1013.5 0.0
10/02:30am 9.9 8.0 7.7 86 1.1 E 7 13 4 7 1013.7 1013.7 0.0
10/02:00am 10.5 8.3 7.9 84 1.3 E 9 13 5 7 1013.8 1013.8 0.0
10/01:30am 11.2 8.7 8.2 82 1.5 E 11 15 6 8 1013.9 1013.9 0.0
10/01:00am 11.8 9.4 8.5 80 1.6 E 11 19 6 10 1014.1 1014.1 0.0
10/12:30am 12.3 9.5 8.6 78 1.8 E 13 19 7 10 1014.4 1014.4 0.0
10/12:00am 12.2 9.9 9.0 81 1.6 ESE 11 17 6 9 1014.6 1014.6 0.0
 
Date/Time
CDT
Temp
°C
App
Temp
°C
Dew
Point
°C
Rel
Hum
%
Delta-T
°C
Wind Press
QNH
hPa
Press
MSL
hPa
Rain since
9am
mm
Dir  Spd
km/h
Gust
km/h
Spd
kts
Gust
kts
09/11:30pm 12.5 10.2 9.1 80 1.7 ESE 11 17 6 9 1014.7 1014.7 0.0
09/11:00pm 12.5 10.6 9.0 79 1.8 SE 9 13 5 7 1014.8 1014.8 0.0
09/10:30pm 12.6 10.7 9.2 80 1.7 SE 9 13 5 7 1014.8 1014.8 0.0
09/10:00pm 13.7 12.3 9.6 76 2.1 SE 7 11 4 6 1015.4 1015.4 0.0
09/09:30pm 14.6 12.5 9.8 73 2.5 SE 11 15 6 8 1015.1 1015.1 0.0
09/09:00pm 15.3 13.4 10.5 73 2.5 SE 11 17 6 9 1014.9 1014.9 0.0
09/08:30pm 15.9 13.4 11.1 73 2.6 SSE 15 20 8 11 1014.8 1014.8 0.0
09/08:00pm 16.6 13.6 10.7 68 3.1 SSE 17 24 9 13 1014.7 1014.7 0.0
09/07:30pm 17.4 14.4 10.5 64 3.7 SSE 17 26 9 14 1014.7 1014.7 0.0
09/07:00pm 18.2 15.1 10.3 60 4.2 SSE 17 22 9 12 1014.7 1014.7 0.0
09/06:30pm 18.4 15.3 10.3 59 4.3 S 17 26 9 14 1014.7 1014.7 0.0
09/06:00pm 18.2 14.4 9.8 58 4.4 S 20 28 11 15 1014.7 1014.7 0.0
09/05:30pm 18.3 14.4 9.4 56 4.7 SSE 20 33 11 18 1014.6 1014.6 0.0
09/05:00pm 17.9 13.0 8.5 54 4.8 S 24 32 13 17 1015.1 1015.1 0.0
09/04:30pm 17.6 12.5 9.2 58 4.4 SSW 26 33 14 18 1015.8 1015.8 0.0
09/04:00pm 18.4 13.6 8.7 53 5.0 SW 24 32 13 17 1016.2 1016.2 0.0
09/03:30pm 19.1 15.5 8.4 50 5.5 NW 17 32 9 17 1015.9 1015.9 0.0
09/03:00pm 20.1 17.3 6.8 42 6.7 ENE 11 24 6 13 1016.2 1016.2 0.0
09/02:30pm 19.4 16.1 6.5 43 6.4 SE 13 24 7 13 1016.4 1016.4 0.0
09/02:00pm 19.1 17.2 6.9 45 6.1 E 6 13 3 7 1016.8 1016.8 0.0
09/01:30pm 18.3 15.4 6.5 46 5.8 ENE 11 17 6 9 1017.4 1017.4 0.0
09/01:00pm 17.2 15.0 5.5 46 5.6 SE 6 15 3 8 1017.8 1017.8 0.0
09/12:30pm 17.5 14.6 6.4 48 5.5 ENE 11 20 6 11 1018.1 1018.1 0.0
09/12:00pm 17.5 15.1 7.0 50 5.2 NE 9 17 5 9 1018.5 1018.5 0.0
09/11:30am 16.6 13.6 5.9 49 5.2 ENE 11 19 6 10 1018.7 1018.7 0.0
09/11:00am 16.3 12.3 6.7 53 4.7 ENE 17 26 9 14 1018.8 1018.8 0.0
09/10:30am 15.1 10.6 6.1 55 4.3 E 19 28 10 15 1018.8 1018.8 0.0
09/10:00am 14.4 9.9 6.3 58 3.9 ENE 19 26 10 14 1018.8 1018.8 0.0
09/09:30am 13.2 9.2 6.5 64 3.2 E 17 22 9 12 1018.9 1018.9 0.0
09/09:00am 12.4 9.1 6.5 67 2.8 E 13 20 7 11 1019.2 1019.2 0.2
09/08:30am 11.5 7.7 6.0 69 2.6 E 15 20 8 11 1019.1 1019.1 0.2
09/08:00am 10.9 8.9 6.3 73 2.2 ENE 6 11 3 6 1020.1 1020.1 0.2
09/07:30am 9.0 7.8 6.3 83 1.2 E 2 7 1 4 1020.1 1020.1 0.2
09/07:00am 7.6 6.5 5.2 85 1.1 CALM 0 0 0 0 1019.5 1019.5 0.2
09/06:30am 7.2 6.1 5.0 86 1.0 CALM 0 0 0 0 1019.0 1019.0 0.2
09/06:00am 6.2 4.9 4.2 87 0.9 CALM 0 0 0 0 1018.8 1018.8 0.2
09/05:30am 6.2 4.1 4.0 86 0.9 E 4 6 2 3 1018.4 1018.4 0.2
09/05:00am 6.4 4.3 3.9 84 1.1 E 4 6 2 3 1017.8 1017.8 0.2
09/04:30am 6.8 4.2 4.1 83 1.2 ESE 7 11 4 6 1017.6 1017.6 0.2
09/04:00am 7.0 4.4 4.1 82 1.2 ESE 7 11 4 6 1017.6 1017.6 0.2
09/03:30am 6.9 4.3 4.0 82 1.2 ESE 7 11 4 6 1017.6 1017.6 0.2
09/03:00am 7.0 4.3 3.8 80 1.4 ESE 7 11 4 6 1017.8 1017.8 0.2
09/02:30am 7.0 4.5 3.8 80 1.4 ESE 6 9 3 5 1018.3 1018.3 0.2
09/02:00am 7.3 5.2 3.9 79 1.5 ESE 4 6 2 3 1018.8 1018.8 0.2
09/01:30am 7.6 5.5 3.8 77 1.6 ESE 4 6 2 3 1019.1 1019.1 0.2
09/01:00am 8.0 5.5 4.0 76 1.7 ESE 6 7 3 4 1019.3 1019.3 0.2
09/12:30am 7.7 5.2 3.9 77 1.6 ESE 6 9 3 5 1019.3 1019.3 0.2
09/12:00am 8.3 5.8 3.9 74 1.9 ESE 6 7 3 4 1019.4 1019.4 0.2
 
Date/Time
CDT
Temp
°C
App
Temp
°C
Dew
Point
°C
Rel
Hum
%
Delta-T
°C
Wind Press
QNH
hPa
Press
MSL
hPa
Rain since
9am
mm
Dir  Spd
km/h
Gust
km/h
Spd
kts
Gust
kts
08/11:30pm 8.6 6.1 4.0 73 2.0 ESE 6 7 3 4 1019.8 1019.8 0.2
08/11:00pm 9.0 6.6 4.4 73 2.0 ESE 6 7 3 4 1019.9 1019.9 0.2
08/10:30pm 10.0 8.1 5.0 71 2.2 SE 4 7 2 4 1019.9 1019.9 0.2
08/10:00pm 10.7 8.4 5.9 72 2.2 SE 7 13 4 7 1019.5 1019.5 0.2
08/09:30pm 10.9 8.6 5.7 70 2.4 SSE 7 13 4 7 1019.0 1019.0 0.2
08/09:00pm 11.9 7.8 6.2 68 2.7 SSE 17 24 9 13 1018.7 1018.7 0.2
08/08:30pm 12.2 8.5 6.5 68 2.7 SSE 15 24 8 13 1018.4 1018.4 0.2
08/08:00pm 12.6 8.5 6.4 66 2.9 SSE 17 24 9 13 1018.7 1018.7 0.2
08/07:30pm 13.3 8.4 5.2 58 3.8 S 20 26 11 14 1018.6 1018.6 0.2
08/07:00pm 13.9 9.2 5.3 56 4.0 S 19 26 10 14 1018.6 1018.6 0.2
08/06:30pm 14.1 9.3 4.4 52 4.5 S 19 30 10 16 1017.9 1017.9 0.2
08/06:00pm 15.0 10.2 5.5 53 4.5 S 20 28 11 15 1017.8 1017.8 0.2
08/05:30pm 14.7 9.7 4.7 51 4.6 S 20 32 11 17 1018.3 1018.3 0.2
08/05:00pm 15.3 9.8 5.8 53 4.5 SSW 24 35 13 19 1019.0 1019.0 0.2
08/04:30pm 16.0 11.1 7.0 55 4.4 S 22 33 12 18 1018.9 1018.9 0.2
08/04:00pm 16.0 10.9 6.2 52 4.8 S 22 32 12 17 1018.6 1018.6 0.2
08/03:30pm 14.7 10.0 6.0 56 4.2 S 20 30 11 16 1018.7 1018.7 0.2
08/03:00pm 16.4 11.2 7.1 54 4.6 SSW 24 35 13 19 1018.6 1018.6 0.2
08/02:30pm 16.2 10.8 6.3 52 4.8 SSW 24 33 13 18 1018.5 1018.5 0.2
08/02:00pm 15.8 10.2 5.4 50 5.0 SSW 24 35 13 19 1018.7 1018.7 0.2
08/01:30pm 16.1 11.1 6.5 53 4.7 S 22 33 12 18 1018.8 1018.8 0.2
08/01:00pm 16.0 10.8 5.6 50 5.0 SSW 22 35 12 19 1018.9 1018.9 0.2
08/12:30pm 15.6 10.3 6.6 55 4.4 S 24 33 13 18 1019.1 1019.1 0.0
08/12:00pm 15.4 10.0 6.2 54 4.4 S 24 35 13 19 1019.0 1019.0 0.0
08/11:30am 15.1 9.1 3.6 46 5.2 SSW 24 35 13 19 1019.0 1019.0 0.0
08/11:00am 15.6 9.4 4.3 47 5.3 SSW 26 39 14 21 1019.0 1019.0 0.0
08/10:30am 15.0 8.0 4.1 48 5.0 SSW 30 39 16 21 1018.8 1018.8 0.0
08/10:00am 14.4 8.4 5.2 54 4.3 S 26 37 14 20 1018.8 1018.8 0.0
08/09:30am 13.9 9.1 5.8 58 3.8 S 20 32 11 17 1018.8 1018.8 0.0
08/09:00am 13.6 8.1 6.0 60 3.6 SSW 24 35 13 19 1018.7 1018.7 0.6
08/08:30am 13.3 8.8 6.9 65 3.1 S 20 35 11 19 1018.4 1018.4 0.6
08/08:00am 14.0 8.4 5.6 57 4.0 SSW 24 35 13 19 1018.0 1018.0 0.6
08/07:30am 13.8 8.3 5.9 59 3.7 SSW 24 33 13 18 1017.4 1017.4 0.6
08/07:00am 12.6 7.0 5.5 62 3.3 SSW 24 35 13 19 1017.0 1017.0 0.6
08/06:30am 12.4 7.6 4.9 60 3.4 SSW 19 28 10 15 1016.6 1016.6 0.6
08/06:00am 11.9 7.7 5.8 66 2.8 SSW 17 28 9 15 1016.4 1016.4 0.6
08/05:30am 11.0 7.3 6.2 72 2.2 SSW 15 24 8 13 1016.1 1016.1 0.6
08/05:00am 11.3 6.3 6.6 73 2.2 SSW 22 33 12 18 1015.9 1015.9 0.6
08/04:30am 11.5 6.3 5.6 67 2.7 SSW 22 41 12 22 1015.6 1015.6 0.6
08/04:00am 11.6 5.4 4.3 61 3.3 SSW 26 35 14 19 1015.6 1015.6 0.6
08/03:30am 11.9 7.1 5.5 65 3.0 SSW 20 33 11 18 1015.7 1015.7 0.6
08/03:00am 11.6 6.5 4.3 61 3.3 SSW 20 30 11 16 1015.5 1015.5 0.6
08/02:30am 11.6 6.3 4.8 63 3.1 SSW 22 32 12 17 1015.6 1015.6 0.6
08/02:00am 11.7 6.9 5.8 67 2.7 SSW 20 33 11 18 1015.7 1015.7 0.6
08/01:30am 11.6 7.5 4.3 61 3.3 SSW 15 24 8 13 1015.7 1015.7 0.6
08/01:00am 11.5 6.1 4.7 63 3.1 SSW 22 32 12 17 1015.8 1015.8 0.6
08/12:30am 11.9 5.3 4.2 59 3.5 SSW 28 39 15 21 1015.9 1015.9 0.6
08/12:00am 11.8 5.6 4.3 60 3.4 SSW 26 39 14 21 1016.2 1016.2 0.6
 
Date/Time
CDT
Temp
°C
App
Temp
°C
Dew
Point
°C
Rel
Hum
%
Delta-T
°C
Wind Press
QNH
hPa
Press
MSL
hPa
Rain since
9am
mm
Dir  Spd
km/h
Gust
km/h
Spd
kts
Gust
kts
07/11:30pm 11.7 6.2 5.8 67 2.7 SSW 24 39 13 21 1016.1 1016.1 0.6
07/11:00pm 11.2 6.4 5.5 68 2.6 SSW 20 32 11 17 1015.9 1015.9 0.6
07/10:30pm 12.3 6.9 6.4 67 2.8 S 24 35 13 19 1015.9 1015.9 0.4
07/10:00pm 12.2 5.9 3.7 56 3.8 SSW 26 37 14 20 1015.7 1015.7 0.4
07/09:30pm 12.6 6.3 3.8 55 3.9 SSW 26 39 14 21 1015.3 1015.3 0.4
07/09:00pm 12.2 5.1 3.4 55 3.9 SSW 30 41 16 22 1015.0 1015.0 0.4
07/08:30pm 12.3 6.8 3.8 56 3.8 SSW 22 37 12 20 1014.8 1014.8 0.4
07/08:00pm 12.4 6.3 4.9 60 3.4 SSW 26 39 14 21 1014.3 1014.3 0.4
07/07:30pm 12.4 6.0 5.3 62 3.3 S 28 41 15 22 1013.9 1013.9 0.4
07/07:00pm 13.6 6.8 5.3 57 3.9 SSW 30 46 16 25 1013.4 1013.4 0.4
07/06:30pm 14.5 7.0 4.5 51 4.6 SSW 33 44 18 24 1012.8 1012.8 0.4
07/06:00pm 14.5 7.0 4.2 50 4.7 SSW 33 50 18 27 1012.4 1012.4 0.4
07/05:44pm 15.3 8.4 4.7 49 5.0 SSW 30 48 16 26 1012.2 1012.2 0.4
07/05:30pm 15.5 7.7 4.8 49 5.0 SSW 35 48 19 26 1011.9 1011.9 0.4
07/05:00pm 15.4 7.2 4.5 48 5.1 SSW 37 50 20 27 1011.8 1011.8 0.4
07/04:46pm 15.7 8.7 5.9 52 4.7 SSW 32 50 17 27 1011.7 1011.7 0.4
07/04:30pm 15.3 8.0 7.1 58 4.0 SSW 35 50 19 27 1011.5 1011.5 0.4
07/04:00pm 15.2 7.8 8.4 64 3.4 SSW 37 54 20 29 1011.1 1011.1 0.4
07/03:30pm 14.3 8.1 10.1 76 2.2 SSW 33 48 18 26 1010.8 1010.8 0.4
07/03:00pm 15.2 8.9 9.8 70 2.8 SW 33 48 18 26 1010.6 1010.6 0.4
07/02:30pm 13.6 7.9 11.3 86 1.2 SW 32 44 17 24 1010.5 1010.5 0.4
07/02:00pm 14.1 11.2 12.3 89 1.0 SW 19 32 10 17 1010.4 1010.4 0.2
07/01:48pm 13.2 7.9 11.4 89 1.0 SW 30 50 16 27 1010.5 1010.5 0.2
07/01:30pm 16.4 11.3 9.1 62 3.8 WSW 26 41 14 22 1010.0 1010.0 0.0
07/01:00pm 17.7 13.3 8.8 56 4.6 WSW 22 37 12 20 1009.8 1009.8 0.0
07/12:30pm 17.6 13.4 7.6 52 5.1 WSW 19 28 10 15 1009.8 1009.8 0.0
07/12:00pm 17.5 12.6 8.4 55 4.7 SW 24 35 13 19 1009.8 1009.8 0.0
07/11:30am 17.2 13.2 9.1 59 4.2 SW 20 33 11 18 1009.7 1009.7 0.0
07/11:00am 16.7 12.7 8.4 58 4.2 SW 19 30 10 16 1009.6 1009.6 0.0
07/10:30am 16.5 12.7 7.7 56 4.4 SW 17 28 9 15 1009.4 1009.4 0.0
07/10:00am 16.6 12.7 7.0 53 4.8 SW 17 28 9 15 1009.2 1009.2 0.0

Other formats

Comma delimited format used in spreadsheet applications
http://www.bom.gov.au/fwo/IDS60801/IDS60801.95816.axf

JavaScript Object Notation format (JSON) in row-major order
http://www.bom.gov.au/fwo/IDS60801/IDS60801.95816.json

Data quality

Most of these data are generated automatically and are frequently updated. Quality checks on data are not normally performed. It is possible for incorrect values to appear. Refer to information at About Latest Weather Observations and please check the disclaimer before using these data.